Pajarito, New Mexico
Current Conditions -  °F | °C
As of 9:35 AM on Saturday 22 Nov 2014 (Local Time) from KLAM Reporting Station
Clear Clear  
Wind Chill: 37°   Ceiling: Unl
Heat Index: 37°   Visibility: 10mi
Dew Point: 22°   Wind: 0mph
Humidity: 56%   Direction: NA
Pressure: 30.11"   Gusts: NA
Location:  35.9775°N, 106.158°W
Report Text: KLAM 221635Z AUTO 00000KT 10SM CLR 03/M05 A3011 RMK AO2 T00281053
Loading
Personal Weather Stations






























Interactive Weather Map New forecast layout! Learn more

10-Day Weather Forecast

Advertisements
Track Severe Weather on mobile